Time;durP1;ratioP1;P1;durP2;ratioP2;P2;SDS_P1;SDS_P2;PMS_P1;PMS_P2;Temp;Humidity;BMP_temperature;BMP_pressure;BME280_temperature;BME280_humidity;BME280_pressure;Samples;Min_cycle;Max_cycle;Signal;HPM_P1;HPM_P2
2023/11/27 00:01:42;;;;;;;;;;;;;;;1.17;100.00;96173.94;5106751;28;19938;-78
2023/11/27 00:04:08;;;;;;;;;;;;;;;1.15;100.00;96167.34;5106376;28;19942;-72
2023/11/27 00:06:34;;;;;;;;;;;;;;;1.08;100.00;96169.00;5105238;28;20298;-72
2023/11/27 00:09:00;;;;;;;;;;;;;;;1.03;100.00;96164.31;5105636;28;19950;-71
2023/11/27 00:11:26;;;;;;;;;;;;;;;1.04;100.00;96165.91;5122020;28;19971;-71
2023/11/27 00:13:51;;;;;;;;;;;;;;;1.08;100.00;96166.41;5105667;28;19992;-71
2023/11/27 00:16:17;;;;;;;;;;;;;;;1.09;100.00;96165.41;5106001;28;19960;-71
2023/11/27 00:18:46;;;;;;;;;;;;;;;1.10;100.00;96160.09;5120663;28;19947;-71
2023/11/27 00:21:13;;;;;;;;;;;;;;;1.12;100.00;96158.16;5087935;28;20142;-71
2023/11/27 00:23:39;;;;;;;;;;;;;;;1.13;100.00;96151.22;5105932;28;20143;-73
2023/11/27 00:26:06;;;;;;;;;;;;;;;1.11;100.00;96153.94;5121848;28;19946;-79
2023/11/27 00:28:32;;;;;;;;;;;;;;;1.11;100.00;96150.56;5105804;28;19940;-79
2023/11/27 00:30:58;;;;;;;;;;;;;;;1.09;100.00;96147.34;5105823;28;19940;-79
2023/11/27 00:33:24;;;;;;;;;;;;;;;1.07;100.00;96139.78;5106286;28;20209;-78
2023/11/27 00:35:50;;;;;;;;;;;;;;;1.08;100.00;96141.38;5105682;28;19993;-78
2023/11/27 00:38:16;;;;;;;;;;;;;;;1.09;100.00;96131.84;5105751;28;19972;-78
2023/11/27 00:40:42;;;;;;;;;;;;;;;1.09;100.00;96134.44;5106083;28;20110;-73
2023/11/27 00:43:08;;;;;;;;;;;;;;;1.10;100.00;96123.94;5105591;28;19938;-74
2023/11/27 00:45:34;;;;;;;;;;;;;;;1.09;100.00;96124.09;5106225;28;19957;-73
2023/11/27 00:48:00;;;;;;;;;;;;;;;1.08;100.00;96123.31;5104622;28;19941;-72
2023/11/27 00:50:26;;;;;;;;;;;;;;;1.08;100.00;96112.19;5105891;28;19939;-73
2023/11/27 00:52:52;;;;;;;;;;;;;;;1.08;100.00;96109.59;5105356;28;19943;-73
2023/11/27 00:55:18;;;;;;;;;;;;;;;1.06;100.00;96109.75;5104074;28;19960;-72
2023/11/27 00:57:45;;;;;;;;;;;;;;;1.06;100.00;96108.97;5121844;28;19946;-73
2023/11/27 01:00:11;;;;;;;;;;;;;;;1.03;100.00;96094.59;5104842;28;20122;-72
2023/11/27 01:02:37;;;;;;;;;;;;;;;0.98;100.00;96100.25;5121751;28;19942;-73
2023/11/27 01:05:03;;;;;;;;;;;;;;;0.92;100.00;96102.69;5105448;28;20029;-74
2023/11/27 01:07:29;;;;;;;;;;;;;;;0.89;100.00;96101.25;5105555;28;20028;-74
2023/11/27 01:09:55;;;;;;;;;;;;;;;0.89;100.00;96090.94;5121405;28;20128;-74
2023/11/27 01:12:21;;;;;;;;;;;;;;;0.91;100.00;96091.56;5105601;28;19948;-73
2023/11/27 01:14:47;;;;;;;;;;;;;;;0.88;100.00;96084.13;5086701;28;19951;-73
2023/11/27 01:17:12;;;;;;;;;;;;;;;0.79;100.00;96082.56;5104695;28;19945;-70
2023/11/27 01:19:38;;;;;;;;;;;;;;;0.71;100.00;96075.63;5121373;28;19978;-72
2023/11/27 01:22:04;;;;;;;;;;;;;;;0.68;100.00;96075.19;5120526;28;20001;-76
2023/11/27 01:24:30;;;;;;;;;;;;;;;0.64;100.00;96076.47;5104713;28;19941;-75
2023/11/27 01:26:56;;;;;;;;;;;;;;;0.63;100.00;96067.13;5105176;28;19941;-74
2023/11/27 01:29:21;;;;;;;;;;;;;;;0.61;100.00;96067.28;5104605;28;19978;-74
2023/11/27 01:31:49;;;;;;;;;;;;;;;0.61;100.00;96054.41;5104652;28;19940;-73
2023/11/27 01:34:15;;;;;;;;;;;;;;;0.58;100.00;96045.19;5104613;28;19943;-73
2023/11/27 01:36:42;;;;;;;;;;;;;;;0.55;100.00;96042.16;5104661;28;19954;-76
2023/11/27 01:39:09;;;;;;;;;;;;;;;0.54;100.00;96038.75;5120151;28;19975;-71
2023/11/27 01:41:35;;;;;;;;;;;;;;;0.52;100.00;96037.31;5104709;28;19956;-71
2023/11/27 01:44:01;;;;;;;;;;;;;;;0.48;100.00;96030.88;5104306;28;19961;-71
2023/11/27 01:46:27;;;;;;;;;;;;;;;0.45;100.00;96031.22;5120250;28;19940;-71
2023/11/27 01:48:54;;;;;;;;;;;;;;;0.43;100.00;96030.56;5120692;28;19950;-71
2023/11/27 01:51:24;;;;;;;;;;;;;;;0.43;100.00;96026.19;5103088;28;19939;-71
2023/11/27 01:53:50;;;;;;;;;;;;;;;0.43;100.00;96025.41;5104519;28;19936;-70
2023/11/27 01:56:17;;;;;;;;;;;;;;;0.40;100.00;96014.44;5104109;28;20256;-72
2023/11/27 01:58:43;;;;;;;;;;;;;;;0.40;100.00;96017.03;5105054;28;19945;-72
2023/11/27 02:01:09;;;;;;;;;;;;;;;0.42;100.00;96014.28;5120106;28;19935;-73
2023/11/27 02:03:35;;;;;;;;;;;;;;;0.44;100.00;96012.31;5120752;28;20035;-73
2023/11/27 02:06:01;;;;;;;;;;;;;;;0.45;100.00;96013.94;5102710;28;19940;-73
2023/11/27 02:08:28;;;;;;;;;;;;;;;0.52;100.00;96017.47;5104146;28;20123;-73
2023/11/27 02:10:55;;;;;;;;;;;;;;;0.58;100.00;96010.84;5104301;28;19942;-73
2023/11/27 02:13:21;;;;;;;;;;;;;;;0.65;100.00;96008.41;5104116;28;19941;-72
2023/11/27 02:15:47;;;;;;;;;;;;;;;0.69;100.00;96007.09;5102886;28;19961;-71
2023/11/27 02:18:14;;;;;;;;;;;;;;;0.68;100.00;95993.41;5104265;28;19950;-71
2023/11/27 02:20:39;;;;;;;;;;;;;;;0.65;100.00;95998.06;5120425;28;19943;-71
2023/11/27 02:23:15;;;;;;;;;;;;;;;0.57;100.00;95992.00;5104195;28;20011;-71
2023/11/27 02:25:41;;;;;;;;;;;;;;;0.53;100.00;95992.50;5103332;28;19941;-72
2023/11/27 02:28:07;;;;;;;;;;;;;;;0.52;100.00;95985.72;5102472;28;20178;-72
2023/11/27 02:30:33;;;;;;;;;;;;;;;0.51;100.00;95987.50;5120083;28;19951;-72
2023/11/27 02:32:59;;;;;;;;;;;;;;;0.50;100.00;95980.72;5119718;28;19952;-70
2023/11/27 02:35:25;;;;;;;;;;;;;;;0.51;100.00;95984.91;5119574;28;19954;-70
2023/11/27 02:37:51;;;;;;;;;;;;;;;0.51;100.00;95969.44;5119450;28;19974;-70
2023/11/27 02:40:17;;;;;;;;;;;;;;;0.51;100.00;95969.44;5120674;28;19947;-71
2023/11/27 02:42:43;;;;;;;;;;;;;;;0.48;100.00;95964.59;5123743;28;19949;-70
2023/11/27 02:45:10;;;;;;;;;;;;;;;0.48;100.00;95959.44;5108296;28;19951;-71
2023/11/27 02:47:36;;;;;;;;;;;;;;;0.49;100.00;95963.63;5107786;28;19942;-71
2023/11/27 02:50:04;;;;;;;;;;;;;;;0.50;100.00;95948.94;5124488;28;19943;-71
2023/11/27 02:52:30;;;;;;;;;;;;;;;0.49;100.00;95947.34;5124363;28;19944;-72
2023/11/27 02:54:57;;;;;;;;;;;;;;;0.47;100.00;95950.09;5124351;28;19939;-71
2023/11/27 02:57:22;;;;;;;;;;;;;;;0.49;100.00;95948.16;5107990;28;19938;-71
2023/11/27 02:59:49;;;;;;;;;;;;;;;0.53;100.00;95938.31;5107547;28;20225;-71
2023/11/27 03:02:15;;;;;;;;;;;;;;;0.58;100.00;95934.25;5107803;28;19948;-71
2023/11/27 03:04:41;;;;;;;;;;;;;;;0.63;100.00;95936.34;5107439;28;19943;-72
2023/11/27 03:07:07;;;;;;;;;;;;;;;0.65;100.00;95925.81;5107938;28;19939;-71
2023/11/27 03:09:33;;;;;;;;;;;;;;;0.65;100.00;95926.66;5107925;28;20155;-74
2023/11/27 03:12:00;;;;;;;;;;;;;;;0.64;100.00;95922.44;5107331;28;20247;-70
2023/11/27 03:14:26;;;;;;;;;;;;;;;0.64;100.00;95927.63;5107354;28;19940;-70
2023/11/27 03:16:52;;;;;;;;;;;;;;;0.67;100.00;95923.88;5107152;28;20254;-72
2023/11/27 03:19:18;;;;;;;;;;;;;;;0.70;100.00;95924.34;5107719;28;19939;-73
2023/11/27 03:21:44;;;;;;;;;;;;;;;0.71;100.00;95920.00;5123700;28;19943;-73
2023/11/27 03:24:10;;;;;;;;;;;;;;;0.71;100.00;95918.22;5105958;28;20257;-73
2023/11/27 03:26:36;;;;;;;;;;;;;;;0.74;100.00;95917.88;5107792;28;19938;-72
2023/11/27 03:29:02;;;;;;;;;;;;;;;0.74;100.00;95911.94;5122917;28;19946;-71
2023/11/27 03:31:28;;;;;;;;;;;;;;;0.70;100.00;95905.50;5106988;28;19937;-72
2023/11/27 03:33:54;;;;;;;;;;;;;;;0.69;100.00;95906.47;5123473;28;19948;-73
2023/11/27 03:36:20;;;;;;;;;;;;;;;0.72;100.00;95912.09;5107270;28;20161;-72
2023/11/27 03:38:46;;;;;;;;;;;;;;;0.73;100.00;95905.94;5106615;28;19994;-72
2023/11/27 03:41:18;;;;;;;;;;;;;;;0.70;100.00;95901.13;5106708;28;19944;-72
2023/11/27 03:43:44;;;;;;;;;;;;;;;0.69;100.00;95899.50;5106644;28;19950;-71
2023/11/27 03:46:10;;;;;;;;;;;;;;;0.70;100.00;95897.75;5106637;28;20274;-78
2023/11/27 03:48:37;;;;;;;;;;;;;;;0.71;100.00;95892.41;5107386;28;19940;-70
2023/11/27 03:51:04;;;;;;;;;;;;;;;0.74;100.00;95899.81;5107134;28;19951;-70
2023/11/27 03:53:30;;;;;;;;;;;;;;;0.79;100.00;95897.53;5105522;28;19945;-70
2023/11/27 03:55:56;;;;;;;;;;;;;;;0.83;100.00;95889.47;5105218;28;19962;-70
2023/11/27 03:58:22;;;;;;;;;;;;;;;0.85;100.00;95890.88;5106505;28;20007;-70
2023/11/27 04:00:48;;;;;;;;;;;;;;;0.87;100.00;95890.72;5107167;28;19946;-70
2023/11/27 04:03:14;;;;;;;;;;;;;;;0.89;100.00;95899.91;5106365;28;19945;-70
2023/11/27 04:05:40;;;;;;;;;;;;;;;0.88;100.00;95898.28;5122855;28;20191;-73
2023/11/27 04:08:07;;;;;;;;;;;;;;;0.87;100.00;95891.53;5105096;28;19996;-69
2023/11/27 04:10:34;;;;;;;;;;;;;;;0.86;100.00;95889.09;5122849;28;19962;-71
2023/11/27 04:13:00;;;;;;;;;;;;;;;0.85;100.00;95887.50;5121997;28;20113;-70
2023/11/27 04:15:26;;;;;;;;;;;;;;;0.81;100.00;95874.94;5104280;28;20243;-69
2023/11/27 04:17:51;;;;;;;;;;;;;;;0.78;100.00;95872.69;5105931;28;19942;-70
2023/11/27 04:20:17;;;;;;;;;;;;;;;0.74;100.00;95871.44;5122325;28;19959;-70
2023/11/27 04:22:43;;;;;;;;;;;;;;;0.71;100.00;95863.22;5105780;28;19940;-70
2023/11/27 04:25:09;;;;;;;;;;;;;;;0.65;100.00;95851.00;5105923;28;20154;-72
2023/11/27 04:27:35;;;;;;;;;;;;;;;0.59;100.00;95850.72;5106389;28;19936;-71
2023/11/27 04:30:01;;;;;;;;;;;;;;;0.57;100.00;95862.97;5122288;28;19945;-71
2023/11/27 04:32:27;;;;;;;;;;;;;;;0.55;100.00;95861.56;5106028;28;19938;-72
2023/11/27 04:34:53;;;;;;;;;;;;;;;0.55;100.00;95859.78;5105739;28;19948;-71
2023/11/27 04:37:19;;;;;;;;;;;;;;;0.59;100.00;95861.03;5105475;28;19960;-71
2023/11/27 04:39:45;;;;;;;;;;;;;;;0.63;100.00;95856.34;5106495;28;19945;-75
2023/11/27 04:42:11;;;;;;;;;;;;;;;0.66;100.00;95847.47;5105697;28;19951;-69
2023/11/27 04:44:37;;;;;;;;;;;;;;;0.67;100.00;95847.28;5087351;28;20321;-70
2023/11/27 04:47:03;;;;;;;;;;;;;;;0.69;100.00;95845.31;5105892;28;20180;-69
2023/11/27 04:49:29;;;;;;;;;;;;;;;0.72;100.00;95839.03;5104306;28;19948;-69
2023/11/27 04:51:54;;;;;;;;;;;;;;;0.72;100.00;95833.88;5121278;28;19971;-69
2023/11/27 04:54:20;;;;;;;;;;;;;;;0.72;100.00;95842.41;5105336;28;20010;-70
2023/11/27 04:56:46;;;;;;;;;;;;;;;0.71;100.00;95830.47;5105758;28;20240;-69
2023/11/27 04:59:13;;;;;;;;;;;;;;;0.72;100.00;95841.63;5105269;28;20248;-72
2023/11/27 05:01:39;;;;;;;;;;;;;;;0.70;100.00;95828.88;5105256;28;19939;-70
2023/11/27 05:04:05;;;;;;;;;;;;;;;0.70;100.00;95828.09;5105381;28;20119;-70
2023/11/27 05:06:31;;;;;;;;;;;;;;;0.69;100.00;95826.47;5121882;28;20005;-70
2023/11/27 05:08:57;;;;;;;;;;;;;;;0.67;100.00;95829.22;5103967;28;19950;-71
2023/11/27 05:11:23;;;;;;;;;;;;;;;0.60;100.00;95821.34;5105560;28;19937;-71
2023/11/27 05:13:51;;;;;;;;;;;;;;;0.55;100.00;95818.50;5121688;28;19965;-71
2023/11/27 05:16:17;;;;;;;;;;;;;;;0.51;100.00;95813.84;5120565;28;20151;-70
2023/11/27 05:18:44;;;;;;;;;;;;;;;0.50;100.00;95812.22;5105747;28;20104;-72
2023/11/27 05:21:13;;;;;;;;;;;;;;;0.50;100.00;95807.88;5104891;28;19937;-72
2023/11/27 05:23:41;;;;;;;;;;;;;;;0.52;100.00;95803.34;5121357;28;19944;-72
2023/11/27 05:26:09;;;;;;;;;;;;;;;0.49;100.00;95806.28;5119972;28;19946;-73
2023/11/27 05:28:35;;;;;;;;;;;;;;;0.49;100.00;95800.31;5121302;28;19946;-74
2023/11/27 05:31:01;;;;;;;;;;;;;;;0.48;100.00;95791.75;5104635;28;19939;-73
2023/11/27 05:33:27;;;;;;;;;;;;;;;0.53;100.00;95794.63;5105517;28;19946;-72
2023/11/27 05:35:53;;;;;;;;;;;;;;;1.04;100.00;95782.97;5104001;28;19981;-74
2023/11/27 05:38:19;;;;;;;;;;;;;;;1.21;100.00;95774.91;5086413;28;19984;-75
2023/11/27 05:40:45;;;;;;;;;;;;;;;1.17;100.00;95770.28;5103341;28;19949;-76
2023/11/27 05:43:12;;;;;;;;;;;;;;;1.08;100.00;95761.78;5103267;28;19943;-77
2023/11/27 05:45:38;;;;;;;;;;;;;;;0.95;100.00;95764.19;5105379;28;19933;-77
2023/11/27 05:48:05;;;;;;;;;;;;;;;0.85;100.00;95771.34;5104530;28;19940;-75
2023/11/27 05:50:32;;;;;;;;;;;;;;;0.76;100.00;95771.41;5104390;28;19939;-76
2023/11/27 05:52:58;;;;;;;;;;;;;;;0.71;100.00;95771.13;5120799;28;20131;-75
2023/11/27 05:55:24;;;;;;;;;;;;;;;0.68;100.00;95773.25;5104163;28;20121;-83
2023/11/27 05:57:50;;;;;;;;;;;;;;;0.66;100.00;95770.06;5120046;28;20163;-70
2023/11/27 06:00:16;;;;;;;;;;;;;;;0.64;100.00;95764.25;5120999;28;19942;-70
2023/11/27 06:02:42;;;;;;;;;;;;;;;0.59;100.00;95762.19;5120822;28;19953;-70
2023/11/27 06:05:08;;;;;;;;;;;;;;;0.56;100.00;95758.16;5104214;28;19938;-70
2023/11/27 06:07:34;;;;;;;;;;;;;;;0.55;100.00;95756.56;5086905;28;19989;-71
2023/11/27 06:10:01;;;;;;;;;;;;;;;0.57;100.00;95756.41;5104139;28;19941;-71
2023/11/27 06:12:28;;;;;;;;;;;;;;;0.66;100.00;95744.25;5102785;28;19945;-86
2023/11/27 06:14:54;;;;;;;;;;;;;;;1.21;100.00;95745.69;5119448;28;19939;-71
2023/11/27 06:17:20;;;;;;;;;;;;;;;1.34;100.00;95737.34;5119660;28;20006;-71
2023/11/27 06:19:46;;;;;;;;;;;;;;;1.24;100.00;95742.78;5104179;28;19943;-70
2023/11/27 06:22:12;;;;;;;;;;;;;;;1.10;100.00;95734.03;5103011;28;19936;-70
2023/11/27 06:24:38;;;;;;;;;;;;;;;1.02;100.00;95742.63;5086852;28;19943;-70
2023/11/27 06:27:04;;;;;;;;;;;;;;;0.93;100.00;95737.75;5086754;28;19949;-70
2023/11/27 06:29:30;;;;;;;;;;;;;;;0.84;100.00;95747.34;5119879;28;19943;-71
2023/11/27 06:31:55;;;;;;;;;;;;;;;0.78;100.00;95748.03;5104279;28;19944;-70
2023/11/27 06:34:21;;;;;;;;;;;;;;;0.74;100.00;95742.41;5119843;28;19945;-71
2023/11/27 06:36:47;;;;;;;;;;;;;;;0.68;100.00;95737.94;5104072;28;19963;-71
2023/11/27 06:39:13;;;;;;;;;;;;;;;0.62;100.00;95737.84;5103840;28;20285;-71
2023/11/27 06:41:39;;;;;;;;;;;;;;;0.62;100.00;95740.41;5120383;28;19945;-73
2023/11/27 06:44:05;;;;;;;;;;;;;;;0.58;100.00;95733.00;5120364;28;20014;-70
2023/11/27 06:46:31;;;;;;;;;;;;;;;0.58;100.00;95730.41;5104419;28;19964;-71
2023/11/27 06:48:56;;;;;;;;;;;;;;;0.58;100.00;95729.63;5119698;28;19949;-72
2023/11/27 06:51:22;;;;;;;;;;;;;;;0.60;100.00;95732.84;5102577;28;19937;-75
2023/11/27 06:53:48;;;;;;;;;;;;;;;0.63;100.00;95732.50;5104373;28;19943;-69
2023/11/27 06:56:14;;;;;;;;;;;;;;;0.62;100.00;95735.25;5102463;28;19954;-70
2023/11/27 06:58:41;;;;;;;;;;;;;;;0.64;100.00;95728.13;5120108;28;19943;-71
2023/11/27 07:01:10;;;;;;;;;;;;;;;0.67;100.00;95725.19;5103403;28;20123;-69
2023/11/27 07:03:36;;;;;;;;;;;;;;;0.71;100.00;95729.03;5104250;28;19937;-71
2023/11/27 07:06:03;;;;;;;;;;;;;;;0.71;100.00;95723.88;5104484;28;20006;-70
2023/11/27 07:08:29;;;;;;;;;;;;;;;0.71;100.00;95722.09;5103946;28;20216;-70
2023/11/27 07:10:54;;;;;;;;;;;;;;;0.72;100.00;95710.81;5103719;28;19942;-76
2023/11/27 07:13:21;;;;;;;;;;;;;;;0.76;100.00;95716.44;5103623;28;19935;-75
2023/11/27 07:15:46;;;;;;;;;;;;;;;0.77;100.00;95707.69;5103511;28;19949;-75
2023/11/27 07:18:12;;;;;;;;;;;;;;;0.78;100.00;95709.31;5104422;28;20142;-73
2023/11/27 07:20:40;;;;;;;;;;;;;;;0.80;100.00;95710.75;5104294;28;20274;-74
2023/11/27 07:23:07;;;;;;;;;;;;;;;0.79;100.00;95701.38;5104053;28;19947;-74
2023/11/27 07:25:33;;;;;;;;;;;;;;;0.83;100.00;95698.47;5103998;28;20116;-73
2023/11/27 07:27:59;;;;;;;;;;;;;;;0.83;100.00;95704.41;5106206;28;19939;-82
2023/11/27 07:30:25;;;;;;;;;;;;;;;0.80;100.00;95695.25;5107613;28;19948;-72
2023/11/27 07:32:50;;;;;;;;;;;;;;;0.77;100.00;95687.06;5107781;28;19943;-72
2023/11/27 07:35:16;;;;;;;;;;;;;;;0.75;100.00;95679.47;5122831;28;19981;-72
2023/11/27 07:37:42;;;;;;;;;;;;;;;0.74;100.00;95675.31;5106664;28;19971;-72
2023/11/27 07:40:10;;;;;;;;;;;;;;;0.73;100.00;95673.69;5107524;28;19982;-73
2023/11/27 07:42:38;;;;;;;;;;;;;;;0.76;100.00;95675.16;5122775;28;19940;-72
2023/11/27 07:45:05;;;;;;;;;;;;;;;0.77;100.00;95669.00;5106968;28;20266;-72
2023/11/27 07:47:31;;;;;;;;;;;;;;;0.82;100.00;95656.38;5107344;28;19939;-70
2023/11/27 07:49:57;;;;;;;;;;;;;;;0.86;100.00;95661.97;5122598;28;19938;-70
2023/11/27 07:52:23;;;;;;;;;;;;;;;0.86;100.00;95664.53;5122586;28;20192;-69
2023/11/27 07:54:49;;;;;;;;;;;;;;;0.86;100.00;95657.63;5122441;28;19979;-69
2023/11/27 07:57:15;;;;;;;;;;;;;;;0.87;100.00;95651.47;5105502;28;19957;-70
2023/11/27 07:59:41;;;;;;;;;;;;;;;0.88;100.00;95649.69;5107065;28;20026;-70
2023/11/27 08:02:07;;;;;;;;;;;;;;;0.89;100.00;95646.94;5106522;28;19938;-70
2023/11/27 08:04:33;;;;;;;;;;;;;;;0.92;100.00;95640.63;5106986;28;19940;-73
2023/11/27 08:06:59;;;;;;;;;;;;;;;0.93;100.00;95637.88;5122244;28;19948;-74
2023/11/27 08:09:25;;;;;;;;;;;;;;;0.94;100.00;95631.72;5106371;28;20106;-74
2023/11/27 08:11:51;;;;;;;;;;;;;;;0.96;100.00;95645.22;5107031;28;19934;-74
2023/11/27 08:14:17;;;;;;;;;;;;;;;0.97;100.00;95638.31;5106772;28;19951;-75
2023/11/27 08:16:44;;;;;;;;;;;;;;;0.98;100.00;95630.38;5106583;28;19950;-74
2023/11/27 08:19:13;;;;;;;;;;;;;;;1.02;100.00;95633.41;5122820;28;19945;-75
2023/11/27 08:21:39;;;;;;;;;;;;;;;1.01;100.00;95632.63;5106285;28;19937;-85
2023/11/27 08:24:06;;;;;;;;;;;;;;;1.06;100.00;95636.44;5106085;28;19944;-74
2023/11/27 08:26:39;;;;;;;;;;;;;;;1.05;100.00;95627.09;5104941;28;19933;-75
2023/11/27 08:29:08;;;;;;;;;;;;;;;1.06;100.00;95626.13;5106479;28;19946;-74
2023/11/27 08:31:35;;;;;;;;;;;;;;;1.09;100.00;95626.56;5105885;28;20104;-73
2023/11/27 08:34:01;;;;;;;;;;;;;;;1.13;100.00;95622.63;5106644;28;20242;-74
2023/11/27 08:36:27;;;;;;;;;;;;;;;1.15;100.00;95615.50;5105715;28;19952;-75
2023/11/27 08:38:55;;;;;;;;;;;;;;;1.19;100.00;95613.38;5104919;28;19986;-74
2023/11/27 08:41:21;;;;;;;;;;;;;;;1.25;100.00;95611.84;5122368;28;20168;-74
2023/11/27 08:43:47;;;;;;;;;;;;;;;1.28;100.00;95607.13;5104701;28;19961;-72
2023/11/27 08:46:13;;;;;;;;;;;;;;;1.31;100.00;95603.38;5087544;28;20224;-71
2023/11/27 08:48:39;;;;;;;;;;;;;;;1.33;100.00;95604.81;5105511;28;20238;-71
2023/11/27 08:51:08;;;;;;;;;;;;;;;1.33;100.00;95597.06;5121413;28;19934;-72
2023/11/27 08:53:35;;;;;;;;;;;;;;;1.34;100.00;95597.84;5121347;28;19938;-71
2023/11/27 08:56:02;;;;;;;;;;;;;;;1.35;100.00;95595.09;5121191;28;19938;-71
2023/11/27 08:58:28;;;;;;;;;;;;;;;1.38;100.00;95588.75;5121193;28;19961;-74
2023/11/27 09:00:54;;;;;;;;;;;;;;;1.39;100.00;95591.16;5105283;28;19940;-74
2023/11/27 09:03:20;;;;;;;;;;;;;;;1.41;100.00;95591.00;5105272;28;19938;-75
2023/11/27 09:05:46;;;;;;;;;;;;;;;1.45;100.00;95581.91;5121356;28;19972;-74
2023/11/27 09:08:13;;;;;;;;;;;;;;;1.45;100.00;95576.72;5105137;28;19948;-74
2023/11/27 09:10:39;;;;;;;;;;;;;;;1.66;100.00;95572.56;5105625;28;19942;-72
2023/11/27 09:13:06;;;;;;;;;;;;;;;2.43;100.00;95554.50;5105583;28;19948;-77
2023/11/27 09:15:33;;;;;;;;;;;;;;;3.38;100.00;95543.63;5105025;28;20140;-74
2023/11/27 09:17:59;;;;;;;;;;;;;;;4.07;100.00;95542.56;5104891;28;19974;-74
2023/11/27 09:20:25;;;;;;;;;;;;;;;3.98;100.00;95539.38;5105769;28;19945;-86
2023/11/27 09:22:52;;;;;;;;;;;;;;;3.61;100.00;95536.34;5104727;28;19936;-85
2023/11/27 09:25:18;;;;;;;;;;;;;;;3.24;100.00;95535.03;5105411;28;19942;-85
2023/11/27 09:27:46;;;;;;;;;;;;;;;2.95;100.00;95531.72;5105365;28;20120;-86
2023/11/27 09:30:12;;;;;;;;;;;;;;;2.67;100.00;95534.38;5104939;28;20124;-88
2023/11/27 09:32:38;;;;;;;;;;;;;;;2.51;100.00;95539.84;5120906;28;19936;-87
2023/11/27 09:35:05;;;;;;;;;;;;;;;2.35;100.00;95539.16;5105512;28;19946;-70
2023/11/27 09:37:32;;;;;;;;;;;;;;;2.21;100.00;95534.88;5121018;28;20160;-70
2023/11/27 09:39:59;;;;;;;;;;;;;;;2.09;100.00;95524.22;5105461;28;19940;-76
2023/11/27 09:42:34;;;;;;;;;;;;;;;2.05;100.00;95519.63;5104584;28;20131;-76
2023/11/27 09:45:00;;;;;;;;;;;;;;;2.01;100.00;95509.63;5120424;28;19953;-77
2023/11/27 09:47:28;;;;;;;;;;;;;;;2.17;100.00;95506.00;5104898;28;19941;-77
2023/11/27 09:49:55;;;;;;;;;;;;;;;2.43;100.00;95505.34;5104533;28;19936;-76
2023/11/27 09:52:26;;;;;;;;;;;;;;;2.44;100.00;95495.81;5104447;28;19946;-76
2023/11/27 09:54:57;;;;;;;;;;;;;;;2.38;100.00;95488.81;5104684;28;19942;-75
2023/11/27 09:57:23;;;;;;;;;;;;;;;2.32;100.00;95485.19;5105099;28;19962;-73
2023/11/27 09:59:49;;;;;;;;;;;;;;;2.29;100.00;95479.59;5104546;28;19942;-73
2023/11/27 10:02:15;;;;;;;;;;;;;;;2.26;100.00;95477.41;5104512;28;19938;-73
2023/11/27 10:04:42;;;;;;;;;;;;;;;2.26;100.00;95474.81;5104740;28;19980;-73
2023/11/27 10:07:08;;;;;;;;;;;;;;;2.22;100.00;95466.63;5104752;28;20206;-74
2023/11/27 10:09:34;;;;;;;;;;;;;;;2.22;100.00;95464.81;5103874;28;19978;-73
2023/11/27 10:12:00;;;;;;;;;;;;;;;2.21;100.00;95455.47;5104901;28;19938;-71
2023/11/27 10:14:27;;;;;;;;;;;;;;;2.23;100.00;95452.72;5104511;28;20142;-74
2023/11/27 10:16:58;;;;;;;;;;;;;;;2.28;100.00;95449.56;5120420;28;19965;-72
2023/11/27 10:19:25;;;;;;;;;;;;;;;2.35;100.00;95445.19;5104907;28;19943;-73
2023/11/27 10:21:51;;;;;;;;;;;;;;;2.42;100.00;95436.50;5104023;28;19941;-72
2023/11/27 10:24:17;;;;;;;;;;;;;;;2.51;100.00;95423.41;5104049;28;19945;-72
2023/11/27 10:26:44;;;;;;;;;;;;;;;2.59;100.00;95415.47;5104060;28;19938;-73
2023/11/27 10:29:11;;;;;;;;;;;;;;;2.68;100.00;95406.53;5104508;28;20123;-72
2023/11/27 10:31:37;;;;;;;;;;;;;;;2.79;100.00;95405.19;5104514;28;19937;-72
2023/11/27 10:34:03;;;;;;;;;;;;;;;2.84;100.00;95398.44;5119428;28;20120;-70
2023/11/27 10:36:29;;;;;;;;;;;;;;;2.88;100.00;95372.13;5120457;28;19934;-70
2023/11/27 10:39:08;;;;;;;;;;;;;;;2.89;100.00;95376.34;5103713;28;19969;-70
2023/11/27 10:41:35;;;;;;;;;;;;;;;2.87;100.00;95362.78;5103863;28;19947;-71
2023/11/27 10:44:02;;;;;;;;;;;;;;;2.89;100.00;95353.81;5120353;28;19956;-70
2023/11/27 10:46:31;;;;;;;;;;;;;;;2.93;100.00;95357.63;5119749;28;19938;-70
2023/11/27 10:49:00;;;;;;;;;;;;;;;2.99;100.00;95346.47;5120412;28;20253;-70
2023/11/27 10:51:31;;;;;;;;;;;;;;;3.05;100.00;95342.31;5119711;28;19942;-73
2023/11/27 10:54:01;;;;;;;;;;;;;;;3.10;100.00;95339.13;5119624;28;19932;-72
2023/11/27 10:56:33;;;;;;;;;;;;;;;3.15;100.00;95329.75;5103782;28;19941;-75
2023/11/27 10:59:05;;;;;;;;;;;;;;;3.22;100.00;95315.00;5104439;28;20197;-72
2023/11/27 11:01:32;;;;;;;;;;;;;;;3.30;100.00;95320.97;5120882;28;20236;-73
2023/11/27 11:04:09;;;;;;;;;;;;;;;3.35;100.00;95306.44;5108133;28;19941;-73
2023/11/27 11:06:41;;;;;;;;;;;;;;;3.34;100.00;95294.50;5108124;28;19948;-68
2023/11/27 11:09:12;;;;;;;;;;;;;;;3.27;100.00;95275.53;5107455;28;19949;-81
2023/11/27 11:11:38;;;;;;;;;;;;;;;3.27;100.00;95288.50;5108284;28;19944;-70
2023/11/27 11:14:06;;;;;;;;;;;;;;;3.21;100.00;95281.53;5107892;28;20216;-68
2023/11/27 11:16:39;;;;;;;;;;;;;;;3.12;100.00;95265.41;5107724;28;19941;-68
2023/11/27 11:19:18;;;;;;;;;;;;;;;3.07;100.00;95264.38;5107547;28;19946;-68
2023/11/27 11:22:04;;;;;;;;;;;;;;;3.04;100.00;95256.06;5107754;28;19948;-70
2023/11/27 11:24:34;;;;;;;;;;;;;;;3.03;100.00;95248.47;5107033;28;19944;-70
2023/11/27 11:27:20;;;;;;;;;;;;;;;3.01;100.00;95240.09;5089906;28;19942;-69
2023/11/27 11:29:49;;;;;;;;;;;;;;;3.02;100.00;95241.69;5107712;28;19934;-73
2023/11/27 11:32:16;;;;;;;;;;;;;;;3.01;100.00;95233.13;5107009;28;20132;-72
2023/11/27 11:34:43;;;;;;;;;;;;;;;3.03;100.00;95222.56;5107568;28;19939;-73
2023/11/27 11:37:15;;;;;;;;;;;;;;;3.03;100.00;95212.22;5107582;28;19958;-73
2023/11/27 11:39:41;;;;;;;;;;;;;;;3.07;100.00;95210.81;5107721;28;19941;-72
2023/11/27 11:42:13;;;;;;;;;;;;;;;3.09;100.00;95200.22;5106852;28;19983;-72
2023/11/27 11:44:39;;;;;;;;;;;;;;;3.13;100.00;95196.25;5107326;28;19957;-74
2023/11/27 11:47:28;;;;;;;;;;;;;;;3.15;100.00;95209.78;5106840;28;19939;-70
2023/11/27 11:50:13;;;;;;;;;;;;;;;3.23;100.00;95207.81;5114013;28;19944;-71
2023/11/27 11:52:41;;;;;;;;;;;;;;;3.24;100.00;95178.31;5122510;28;19940;-70
2023/11/27 11:55:13;;;;;;;;;;;;;;;3.21;100.00;95163.19;5106863;28;19936;-70
2023/11/27 11:57:41;;;;;;;;;;;;;;;3.31;100.00;95144.59;5107366;28;19950;-70
2023/11/27 12:00:19;;;;;;;;;;;;;;;3.32;100.00;95140.22;5106755;28;20223;-70
2023/11/27 12:02:46;;;;;;;;;;;;;;;3.33;100.00;95159.94;5105393;28;19951;-70
2023/11/27 12:05:12;;;;;;;;;;;;;;;3.29;100.00;95128.47;5071324;28;20031;-70
2023/11/27 12:07:38;;;;;;;;;;;;;;;3.23;100.00;95111.16;5105430;28;20113;-70
2023/11/27 12:10:06;;;;;;;;;;;;;;;3.23;100.00;95124.91;5104590;28;19945;-70
2023/11/27 12:12:32;;;;;;;;;;;;;;;3.22;100.00;95119.94;5087641;28;19946;-70
2023/11/27 12:15:00;;;;;;;;;;;;;;;3.14;100.00;95114.97;5086613;28;19951;-70
2023/11/27 12:17:28;;;;;;;;;;;;;;;3.11;100.00;95110.19;5071419;28;19984;-71
2023/11/27 12:19:54;;;;;;;;;;;;;;;3.10;100.00;95124.94;5070734;28;19940;-76
2023/11/27 12:22:20;;;;;;;;;;;;;;;3.12;100.00;95122.16;5104468;28;20349;-75
2023/11/27 12:24:46;;;;;;;;;;;;;;;3.10;100.00;95119.75;5104562;28;19981;-73
2023/11/27 12:27:13;;;;;;;;;;;;;;;3.25;100.00;95106.56;5087316;28;19960;-73
2023/11/27 12:29:38;;;;;;;;;;;;;;;3.26;100.00;95082.25;5071270;28;19947;-73
2023/11/27 12:32:06;;;;;;;;;;;;;;;3.21;100.00;95093.22;5104182;28;19945;-72
2023/11/27 12:34:34;;;;;;;;;;;;;;;3.16;100.00;95089.66;5101638;28;20246;-72
2023/11/27 12:37:02;;;;;;;;;;;;;;;3.12;100.00;95084.09;5105728;28;19944;-72
2023/11/27 12:39:28;;;;;;;;;;;;;;;3.05;100.00;95073.75;5105763;28;19970;-75
2023/11/27 12:42:03;;;;;;;;;;;;;;;2.99;100.00;95074.56;5106233;28;19940;-72
2023/11/27 12:44:29;;;;;;;;;;;;;;;2.97;100.00;95076.56;5106012;28;19975;-73
2023/11/27 12:46:55;;;;;;;;;;;;;;;2.95;100.00;95057.06;5121486;28;19961;-72